createdAt,value
2022-09-28T00:02:20.978Z,2.30
2022-09-28T00:04:47.611Z,1.73
2022-09-28T00:07:14.077Z,2.20
2022-09-28T00:09:40.576Z,1.92
2022-09-28T00:12:07.072Z,1.83
2022-09-28T00:14:34.063Z,2.00
2022-09-28T00:17:00.564Z,2.00
2022-09-28T00:19:27.100Z,1.98
2022-09-28T00:21:53.612Z,1.83
2022-09-28T00:24:23.064Z,1.90
2022-09-28T00:26:58.004Z,1.80
2022-09-28T00:29:31.777Z,1.80
2022-09-28T00:32:04.552Z,1.90
2022-09-28T00:34:38.365Z,1.70
2022-09-28T00:37:09.323Z,1.95
2022-09-28T00:39:38.223Z,1.85
2022-09-28T00:42:12.595Z,2.10
2022-09-28T00:44:53.116Z,1.70
2022-09-28T00:47:38.602Z,1.98
2022-09-28T00:50:23.730Z,1.90
2022-09-28T00:53:14.747Z,2.00
2022-09-28T00:56:11.387Z,2.20
2022-09-28T00:58:48.084Z,2.03
2022-09-28T01:01:15.795Z,1.80
2022-09-28T01:03:45.541Z,1.90
2022-09-28T01:06:23.982Z,1.92
2022-09-28T01:08:58.361Z,1.90
2022-09-28T01:11:26.049Z,2.00
2022-09-28T01:13:56.067Z,2.22
2022-09-28T01:17:00.868Z,2.10
2022-09-28T01:20:06.465Z,2.00
2022-09-28T01:22:34.228Z,2.13
2022-09-28T01:25:21.680Z,2.10
2022-09-28T01:27:54.501Z,1.90
2022-09-28T01:30:21.947Z,2.00
2022-09-28T01:33:03.452Z,2.17
2022-09-28T01:35:33.465Z,2.20
2022-09-28T01:38:05.164Z,2.40
2022-09-28T01:40:32.640Z,2.20
2022-09-28T01:43:15.093Z,2.20
2022-09-28T01:45:46.410Z,1.90
2022-09-28T01:48:24.228Z,2.20
2022-09-28T01:50:55.052Z,1.92
2022-09-28T01:53:28.257Z,2.10
2022-09-28T01:56:00.291Z,2.20
2022-09-28T01:58:26.848Z,2.08
2022-09-28T02:00:59.746Z,2.00
2022-09-28T02:04:01.309Z,1.83
2022-09-28T02:06:41.482Z,2.00
2022-09-28T02:11:50.443Z,1.90
2022-09-28T02:14:19.690Z,1.80
2022-09-28T02:16:50.880Z,1.75
2022-09-28T02:19:26.521Z,1.90
2022-09-28T02:21:59.794Z,1.97
2022-09-28T02:24:40.896Z,1.88
2022-09-28T02:27:16.223Z,1.70
2022-09-28T02:29:42.869Z,1.75
2022-09-28T02:32:10.547Z,1.83
2022-09-28T02:34:37.153Z,1.90
2022-09-28T02:37:03.716Z,2.00
2022-09-28T02:39:30.216Z,1.80
2022-09-28T02:42:21.598Z,2.00
2022-09-28T02:45:13.642Z,2.20
2022-09-28T02:47:46.294Z,2.00
2022-09-28T02:50:30.068Z,1.98
2022-09-28T02:53:20.257Z,2.05
2022-09-28T02:56:18.613Z,2.00
2022-09-28T02:59:23.674Z,1.85
2022-09-28T03:02:11.746Z,1.95
2022-09-28T03:05:06.264Z,1.80
2022-09-28T03:07:38.299Z,1.83
2022-09-28T03:10:21.958Z,2.10
2022-09-28T03:12:49.373Z,2.00
2022-09-28T03:15:21.209Z,1.90
2022-09-28T03:17:47.739Z,2.00
2022-09-28T03:20:14.740Z,2.15
2022-09-28T03:22:41.389Z,2.20
2022-09-28T03:25:08.877Z,2.20
2022-09-28T03:27:38.313Z,2.30
2022-09-28T03:30:06.049Z,2.10
2022-09-28T03:32:33.080Z,2.10
2022-09-28T03:34:59.728Z,2.15
2022-09-28T03:37:27.748Z,2.20
2022-09-28T03:39:54.577Z,2.17
2022-09-28T03:42:22.581Z,2.20
2022-09-28T03:44:50.779Z,2.05
2022-09-28T03:47:19.006Z,2.20
2022-09-28T03:49:46.190Z,2.00
2022-09-28T03:52:13.662Z,2.60
2022-09-28T03:54:41.374Z,2.05
2022-09-28T03:57:09.474Z,2.10
2022-09-28T03:59:37.503Z,2.05
2022-09-28T04:02:05.527Z,2.20
2022-09-28T04:04:32.363Z,2.15
2022-09-28T04:06:59.407Z,2.20
2022-09-28T04:09:26.252Z,2.10
2022-09-28T04:12:03.768Z,2.28
2022-09-28T04:14:30.938Z,2.50
2022-09-28T04:16:57.621Z,2.20
2022-09-28T04:19:26.710Z,2.30
2022-09-28T04:22:05.906Z,2.13
2022-09-28T04:24:33.332Z,2.30
2022-09-28T04:27:20.041Z,2.40
2022-09-28T04:29:46.511Z,3.20
2022-09-28T04:32:13.859Z,2.20
2022-09-28T04:34:44.104Z,2.25
2022-09-28T04:37:11.555Z,2.30
2022-09-28T04:39:42.281Z,2.00
2022-09-28T04:42:12.054Z,1.90
2022-09-28T04:44:38.956Z,1.73
2022-09-28T04:47:08.756Z,1.90
2022-09-28T04:49:54.041Z,2.17
2022-09-28T04:52:27.219Z,2.10
2022-09-28T04:54:53.918Z,2.03
2022-09-28T04:57:20.615Z,2.00
2022-09-28T04:59:47.228Z,2.00
2022-09-28T05:02:15.105Z,2.00
2022-09-28T05:05:00.855Z,1.83
2022-09-28T05:07:36.866Z,2.00
2022-09-28T05:10:06.004Z,1.83
2022-09-28T05:12:33.131Z,1.73
2022-09-28T05:15:00.573Z,2.00
2022-09-28T05:17:27.177Z,1.98
2022-09-28T05:20:06.706Z,1.75
2022-09-28T05:22:33.494Z,2.10
2022-09-28T05:25:00.394Z,1.98
2022-09-28T05:27:30.684Z,1.90
2022-09-28T05:30:07.476Z,1.85
2022-09-28T05:32:56.947Z,1.90
2022-09-28T05:35:32.926Z,1.95
2022-09-28T05:38:04.814Z,1.98
2022-09-28T05:40:32.212Z,1.77
2022-09-28T05:43:01.014Z,2.60
2022-09-28T05:45:32.508Z,1.88
2022-09-28T05:48:03.954Z,1.80
2022-09-28T05:50:30.594Z,2.05
2022-09-28T05:53:02.005Z,1.77
2022-09-28T05:55:28.937Z,1.83
2022-09-28T05:57:59.866Z,1.75
2022-09-28T06:00:28.285Z,1.70
2022-09-28T06:03:03.348Z,1.90
2022-09-28T06:05:38.533Z,1.90
2022-09-28T06:08:06.884Z,1.88
2022-09-28T06:10:34.213Z,1.88
2022-09-28T06:13:01.693Z,2.00
2022-09-28T06:15:31.400Z,2.00
2022-09-28T06:18:09.758Z,2.00
2022-09-28T06:20:41.726Z,2.03
2022-09-28T06:23:15.878Z,2.10
2022-09-28T06:25:42.848Z,1.90
2022-09-28T06:28:12.599Z,2.00
2022-09-28T06:30:39.873Z,1.90
2022-09-28T06:33:13.253Z,1.90
2022-09-28T06:35:40.807Z,1.90
2022-09-28T06:38:07.498Z,2.38
2022-09-28T06:40:34.513Z,1.90
2022-09-28T06:43:06.888Z,2.00
2022-09-28T06:45:59.714Z,2.00
2022-09-28T06:48:50.127Z,2.08
2022-09-28T06:54:18.651Z,1.80
2022-09-28T06:56:53.339Z,1.80
2022-09-28T06:59:20.391Z,2.05
2022-09-28T07:01:47.063Z,1.90
2022-09-28T07:04:42.779Z,1.98
2022-09-28T07:07:12.341Z,2.05
2022-09-28T07:09:57.253Z,2.10
2022-09-28T07:12:42.467Z,2.15
2022-09-28T07:15:24.498Z,2.10
2022-09-28T07:18:02.699Z,1.90
2022-09-28T07:20:39.306Z,2.20
2022-09-28T07:23:18.896Z,2.33
2022-09-28T07:26:08.008Z,2.60
2022-09-28T07:28:55.960Z,2.90
2022-09-28T07:31:43.957Z,3.05
2022-09-28T07:34:29.883Z,2.45
2022-09-28T07:37:02.954Z,2.92
2022-09-28T07:39:29.522Z,2.83
2022-09-28T07:41:59.821Z,2.47
2022-09-28T07:44:29.794Z,2.45
2022-09-28T07:46:56.879Z,2.50
2022-09-28T07:49:40.282Z,2.55
2022-09-28T07:52:14.913Z,3.10
2022-09-28T07:55:07.244Z,3.20
2022-09-28T07:58:06.826Z,2.90
2022-09-28T08:00:50.125Z,2.35
2022-09-28T08:03:18.882Z,2.40
2022-09-28T08:05:46.791Z,2.60
2022-09-28T08:08:14.015Z,2.42
2022-09-28T08:10:47.239Z,2.47
2022-09-28T08:13:41.547Z,2.65
2022-09-28T08:16:21.797Z,2.40
2022-09-28T08:18:59.741Z,2.20
2022-09-28T08:21:47.400Z,2.20
2022-09-28T08:24:16.980Z,2.17
2022-09-28T08:26:46.132Z,2.20
2022-09-28T08:29:16.948Z,2.03
2022-09-28T08:32:01.719Z,2.38
2022-09-28T08:34:31.162Z,2.90
2022-09-28T08:37:23.253Z,2.90
2022-09-28T08:40:25.994Z,3.10
2022-09-28T08:43:32.227Z,3.35
2022-09-28T08:46:13.747Z,2.60
2022-09-28T08:49:30.042Z,2.40
2022-09-28T08:52:23.366Z,2.13
2022-09-28T08:55:28.469Z,3.35
2022-09-28T08:58:10.561Z,2.10
2022-09-28T09:00:47.169Z,2.40
2022-09-28T09:03:42.360Z,2.38
2022-09-28T09:06:53.003Z,2.28
2022-09-28T09:09:57.831Z,2.50
2022-09-28T09:12:48.779Z,2.42
2022-09-28T09:15:30.253Z,3.08
2022-09-28T09:18:22.351Z,2.78
2022-09-28T09:21:13.824Z,2.97
2022-09-28T09:24:06.806Z,2.70
2022-09-28T09:26:39.521Z,2.60
2022-09-28T09:29:30.301Z,2.47
2022-09-28T09:32:35.544Z,2.30
2022-09-28T09:35:17.957Z,2.60
2022-09-28T09:38:23.284Z,2.65
2022-09-28T09:41:39.157Z,2.80
2022-09-28T09:44:55.454Z,2.60
2022-09-28T09:47:46.799Z,1.98
2022-09-28T09:50:29.977Z,2.10
2022-09-28T09:53:11.004Z,2.33
2022-09-28T09:58:46.247Z,2.28
2022-09-28T10:01:36.144Z,1.90
2022-09-28T10:04:36.137Z,2.00
2022-09-28T10:07:18.743Z,2.40
2022-09-28T10:09:48.548Z,2.05
2022-09-28T10:12:26.441Z,2.10
2022-09-28T10:14:55.218Z,1.88
2022-09-28T10:20:14.803Z,2.30
2022-09-28T10:23:06.708Z,2.20
2022-09-28T10:25:37.375Z,2.00
2022-09-28T10:28:06.301Z,2.10
2022-09-28T10:30:44.463Z,2.08
2022-09-28T10:33:32.153Z,2.30
2022-09-28T10:36:01.768Z,2.17
2022-09-28T10:38:30.197Z,2.05
2022-09-28T10:41:13.437Z,1.98
2022-09-28T10:44:08.917Z,2.35
2022-09-28T10:47:04.102Z,2.30
2022-09-28T10:49:47.002Z,2.50
2022-09-28T10:52:40.301Z,2.45
2022-09-28T10:55:32.621Z,2.58
2022-09-28T10:58:00.771Z,2.15
2022-09-28T11:00:43.085Z,2.30
2022-09-28T11:03:20.735Z,2.00
2022-09-28T11:06:03.261Z,2.28
2022-09-28T11:08:35.804Z,2.13
2022-09-28T11:11:21.177Z,2.20
2022-09-28T11:14:00.387Z,2.65
2022-09-28T11:16:32.832Z,2.20
2022-09-28T11:19:24.335Z,2.20
2022-09-28T11:24:25.470Z,2.10
2022-09-28T11:26:56.857Z,2.00
2022-09-28T11:29:44.077Z,2.00
2022-09-28T11:32:39.015Z,2.20
2022-09-28T11:35:32.819Z,2.00
2022-09-28T11:38:16.563Z,2.22
2022-09-28T11:41:18.797Z,2.08
2022-09-28T11:44:07.054Z,2.03
2022-09-28T11:46:51.972Z,2.13
2022-09-28T11:49:49.741Z,2.00
2022-09-28T11:52:44.434Z,2.17
2022-09-28T11:55:29.474Z,2.30
2022-09-28T11:58:11.237Z,2.10
2022-09-28T12:00:46.189Z,2.20
2022-09-28T12:03:31.174Z,2.17
2022-09-28T12:06:14.583Z,2.40
2022-09-28T12:08:45.741Z,2.40
2022-09-28T12:11:36.323Z,2.08
2022-09-28T12:14:30.904Z,2.38
2022-09-28T12:17:07.686Z,2.50
2022-09-28T12:19:42.454Z,2.35
2022-09-28T12:22:19.437Z,2.53
2022-09-28T12:24:48.991Z,2.45
2022-09-28T12:27:31.432Z,2.47
2022-09-28T12:30:27.385Z,2.40
2022-09-28T12:33:13.406Z,2.10
2022-09-28T12:36:11.875Z,2.30
2022-09-28T12:39:40.768Z,2.30
2022-09-28T12:42:31.558Z,2.38
2022-09-28T12:45:22.897Z,2.40
2022-09-28T12:47:49.653Z,2.35
2022-09-28T12:50:53.958Z,2.28
2022-09-28T12:53:34.822Z,2.55
2022-09-28T12:56:23.722Z,2.60
2022-09-28T12:59:15.119Z,2.60
2022-09-28T13:01:58.136Z,2.83
2022-09-28T13:04:35.144Z,2.67
2022-09-28T13:07:05.218Z,2.80
2022-09-28T13:12:25.461Z,2.72
2022-09-28T13:15:04.635Z,2.75
2022-09-28T13:17:45.995Z,2.67
2022-09-28T13:20:22.197Z,2.67
2022-09-28T13:22:58.157Z,2.55
2022-09-28T13:25:29.031Z,2.70
2022-09-28T13:28:02.795Z,2.80
2022-09-28T13:30:30.574Z,2.90
2022-09-28T13:32:59.301Z,3.20
2022-09-28T13:35:26.212Z,3.10
2022-09-28T13:38:20.845Z,2.90
2022-09-28T13:41:06.117Z,2.97
2022-09-28T13:43:55.782Z,3.20
2022-09-28T13:46:39.822Z,3.03
2022-09-28T13:49:16.627Z,2.97
2022-09-28T13:51:56.712Z,2.95
2022-09-28T13:54:43.301Z,3.20
2022-09-28T13:57:25.281Z,3.03
2022-09-28T14:00:01.396Z,3.10
2022-09-28T14:02:53.038Z,2.92
2022-09-28T14:05:22.695Z,3.05
2022-09-28T14:08:33.561Z,2.83
2022-09-28T14:11:40.651Z,2.83
2022-09-28T14:14:14.144Z,2.70
2022-09-28T14:16:42.263Z,2.60
2022-09-28T14:19:24.303Z,2.50
2022-09-28T14:22:35.717Z,2.70
2022-09-28T14:25:20.116Z,2.40
2022-09-28T14:28:02.120Z,2.40
2022-09-28T14:30:43.760Z,2.15
2022-09-28T14:33:19.251Z,2.50
2022-09-28T14:36:00.836Z,2.25
2022-09-28T14:38:53.674Z,2.20
2022-09-28T14:41:37.685Z,2.38
2022-09-28T14:44:09.819Z,2.10
2022-09-28T14:46:45.524Z,2.58
2022-09-28T14:49:19.232Z,2.58
2022-09-28T14:51:48.583Z,2.00
2022-09-28T14:54:20.409Z,1.83
2022-09-28T14:56:53.018Z,2.05
2022-09-28T14:59:26.692Z,1.92
2022-09-28T15:02:01.260Z,1.88
2022-09-28T15:04:30.768Z,1.77
2022-09-28T15:07:00.243Z,1.63
2022-09-28T15:09:34.182Z,1.70
2022-09-28T15:12:01.792Z,1.60
2022-09-28T15:14:31.912Z,1.52
2022-09-28T15:17:02.918Z,1.73
2022-09-28T15:19:51.207Z,1.70
2022-09-28T15:22:20.475Z,1.52
2022-09-28T15:25:16.460Z,1.40
2022-09-28T15:27:43.148Z,1.40
2022-09-28T15:30:31.901Z,1.30
2022-09-28T15:33:20.205Z,1.40
2022-09-28T15:36:07.682Z,1.40
2022-09-28T15:38:37.285Z,1.35
2022-09-28T15:41:09.759Z,1.30
2022-09-28T15:43:41.425Z,1.50
2022-09-28T15:46:18.406Z,1.40
2022-09-28T15:48:55.466Z,1.50
2022-09-28T15:51:23.690Z,1.40
2022-09-28T15:54:04.588Z,1.80
2022-09-28T15:56:31.530Z,9.60
2022-09-28T15:59:08.658Z,1.80
2022-09-28T16:01:37.803Z,1.40
2022-09-28T16:04:47.984Z,1.33
2022-09-28T16:07:33.304Z,1.20
2022-09-28T16:10:13.763Z,1.20
2022-09-28T16:12:46.503Z,1.40
2022-09-28T16:15:35.098Z,1.40
2022-09-28T16:18:16.269Z,1.20
2022-09-28T16:20:43.225Z,1.25
2022-09-28T16:23:09.631Z,1.30
2022-09-28T16:25:38.996Z,1.20
2022-09-28T16:28:06.882Z,1.20
2022-09-28T16:31:01.241Z,1.20
2022-09-28T16:33:39.774Z,1.20
2022-09-28T16:36:13.018Z,1.20
2022-09-28T16:38:39.555Z,1.20
2022-09-28T16:41:06.350Z,1.33
2022-09-28T16:43:36.214Z,1.20
2022-09-28T16:46:10.419Z,1.20
2022-09-28T16:48:41.639Z,1.17
2022-09-28T16:51:08.108Z,1.30
2022-09-28T16:53:54.376Z,1.10
2022-09-28T16:56:21.523Z,1.20
2022-09-28T16:58:49.207Z,1.20
2022-09-28T17:01:15.768Z,1.20
2022-09-28T17:03:46.719Z,1.10
2022-09-28T17:06:14.886Z,1.00
2022-09-28T17:08:41.640Z,1.10
2022-09-28T17:11:17.977Z,1.00
2022-09-28T17:13:47.288Z,1.20
2022-09-28T17:16:21.004Z,1.08
2022-09-28T17:18:51.771Z,1.15
2022-09-28T17:21:20.060Z,1.10
2022-09-28T17:23:49.344Z,1.05
2022-09-28T17:26:23.219Z,0.90
2022-09-28T17:28:49.709Z,1.10
2022-09-28T17:31:17.094Z,1.17
2022-09-28T17:33:43.706Z,1.00
2022-09-28T17:36:15.023Z,1.00
2022-09-28T17:38:42.870Z,1.10
2022-09-28T17:41:18.078Z,1.10
2022-09-28T17:43:47.070Z,1.02
2022-09-28T17:46:29.127Z,1.10
2022-09-28T17:48:59.478Z,0.93
2022-09-28T17:51:31.068Z,1.00
2022-09-28T17:53:58.611Z,0.80
2022-09-28T17:56:29.664Z,0.98
2022-09-28T17:59:00.668Z,0.85
2022-09-28T18:01:34.006Z,1.00
2022-09-28T18:04:02.695Z,0.90
2022-09-28T18:06:29.369Z,2.22
2022-09-28T18:08:56.980Z,1.20
2022-09-28T18:11:23.615Z,1.00
2022-09-28T18:13:50.365Z,0.93
2022-09-28T18:16:17.396Z,1.17
2022-09-28T18:18:44.003Z,0.80
2022-09-28T18:21:10.743Z,0.85
2022-09-28T18:23:38.235Z,0.85
2022-09-28T18:26:11.329Z,0.80
2022-09-28T18:28:37.963Z,0.73
2022-09-28T18:31:09.433Z,0.70
2022-09-28T18:33:36.840Z,0.60
2022-09-28T18:36:05.024Z,0.70
2022-09-28T18:38:32.142Z,0.80
2022-09-28T18:41:06.789Z,0.60
2022-09-28T18:43:36.345Z,0.70
2022-09-28T18:46:08.168Z,0.60
2022-09-28T18:48:36.060Z,0.60
2022-09-28T18:51:03.559Z,0.60
2022-09-28T18:53:34.679Z,0.55
2022-09-28T18:56:09.250Z,0.70
2022-09-28T18:58:38.832Z,0.70
2022-09-28T19:01:29.486Z,0.80
2022-09-28T19:03:59.296Z,0.80
2022-09-28T19:06:26.005Z,0.60
2022-09-28T19:08:54.285Z,0.70
2022-09-28T19:11:21.567Z,0.70
2022-09-28T19:13:48.178Z,0.68
2022-09-28T19:16:21.078Z,0.60
2022-09-28T19:18:48.660Z,0.50
2022-09-28T19:21:16.075Z,0.63
2022-09-28T19:23:49.058Z,1.00
2022-09-28T19:26:22.521Z,0.93
2022-09-28T19:28:50.346Z,0.60
2022-09-28T19:31:17.636Z,0.50
2022-09-28T19:33:46.402Z,0.63
2022-09-28T19:36:18.481Z,0.75
2022-09-28T19:38:46.694Z,1.10
2022-09-28T19:41:51.555Z,1.02
2022-09-28T19:44:28.762Z,0.90
2022-09-28T19:47:01.342Z,1.08
2022-09-28T19:49:28.082Z,1.10
2022-09-28T19:52:14.304Z,0.90
2022-09-28T19:54:56.674Z,1.10
2022-09-28T19:57:30.191Z,1.10
2022-09-28T20:00:01.760Z,1.10
2022-09-28T20:02:33.273Z,0.95
2022-09-28T20:04:59.914Z,0.90
2022-09-28T20:07:26.435Z,1.15
2022-09-28T20:09:53.637Z,1.00
2022-09-28T20:12:23.168Z,1.08
2022-09-28T20:14:49.714Z,0.93
2022-09-28T20:17:16.209Z,1.08
2022-09-28T20:19:45.419Z,1.20
2022-09-28T20:22:12.158Z,1.00
2022-09-28T20:24:38.645Z,1.30
2022-09-28T20:27:05.112Z,1.40
2022-09-28T20:29:33.543Z,1.30
2022-09-28T20:32:00.886Z,1.23
2022-09-28T20:34:27.392Z,1.20
2022-09-28T20:36:53.883Z,1.60
2022-09-28T20:39:20.736Z,2.10
2022-09-28T20:41:49.047Z,1.77
2022-09-28T20:44:15.570Z,1.88
2022-09-28T20:46:44.101Z,1.20
2022-09-28T20:49:10.827Z,1.20
2022-09-28T20:51:37.314Z,1.30
2022-09-28T20:54:03.896Z,1.25
2022-09-28T20:56:37.635Z,1.30
2022-09-28T20:59:07.788Z,1.30
2022-09-28T21:01:35.136Z,1.30
2022-09-28T21:04:20.383Z,1.50
2022-09-28T21:06:46.986Z,1.40
2022-09-28T21:09:13.490Z,1.50
2022-09-28T21:11:40.264Z,1.60
2022-09-28T21:14:10.353Z,1.80
2022-09-28T21:16:37.579Z,1.90
2022-09-28T21:19:04.512Z,6.78
2022-09-28T21:21:31.500Z,6.38
2022-09-28T21:23:58.364Z,2.20
2022-09-28T21:26:28.995Z,1.50
2022-09-28T21:29:06.428Z,1.50
2022-09-28T21:31:39.549Z,1.38
2022-09-28T21:34:06.525Z,1.52
2022-09-28T21:36:33.657Z,1.60
2022-09-28T21:39:00.309Z,1.50
2022-09-28T21:41:28.692Z,2.15
2022-09-28T21:43:55.325Z,2.72
2022-09-28T21:46:22.068Z,3.28
2022-09-28T21:48:53.413Z,2.00
2022-09-28T21:51:20.316Z,2.13
2022-09-28T21:53:48.431Z,1.95
2022-09-28T21:56:14.972Z,1.60
2022-09-28T21:58:41.599Z,1.60
2022-09-28T22:01:15.408Z,1.80
2022-09-28T22:03:43.999Z,1.55
2022-09-28T22:06:10.964Z,1.52
2022-09-28T22:08:38.570Z,1.45
2022-09-28T22:11:11.115Z,1.60
2022-09-28T22:14:03.844Z,1.60
2022-09-28T22:16:31.484Z,1.65
2022-09-28T22:18:59.159Z,1.90
2022-09-28T22:21:32.625Z,2.10
2022-09-28T22:24:01.085Z,2.78
2022-09-28T22:26:29.128Z,4.55
2022-09-28T22:28:58.174Z,4.07
2022-09-28T22:31:31.225Z,2.42
2022-09-28T22:33:58.416Z,2.40
2022-09-28T22:36:25.925Z,2.30
2022-09-28T22:38:54.579Z,3.20
2022-09-28T22:41:22.163Z,2.65
2022-09-28T22:43:50.281Z,3.25
2022-09-28T22:46:20.363Z,3.10
2022-09-28T22:48:52.191Z,3.28
2022-09-28T22:51:19.707Z,3.10
2022-09-28T22:53:46.503Z,2.90
2022-09-28T22:56:18.197Z,2.85
2022-09-28T22:58:45.846Z,4.15
2022-09-28T23:01:21.220Z,5.03
2022-09-28T23:03:49.125Z,5.40
2022-09-28T23:06:17.904Z,5.47
2022-09-28T23:08:45.580Z,5.43
2022-09-28T23:11:12.048Z,5.30
2022-09-28T23:13:38.617Z,4.30
2022-09-28T23:16:11.353Z,4.28
2022-09-28T23:18:40.918Z,5.10
2022-09-28T23:21:11.371Z,4.47
2022-09-28T23:23:38.569Z,4.82
2022-09-28T23:26:16.310Z,5.03
2022-09-28T23:28:43.721Z,4.88
2022-09-28T23:31:12.209Z,5.13
2022-09-28T23:33:39.025Z,5.57
2022-09-28T23:36:06.687Z,4.63
2022-09-28T23:38:33.228Z,3.88
2022-09-28T23:40:59.776Z,3.58
2022-09-28T23:43:26.265Z,3.50
2022-09-28T23:45:52.743Z,3.22
2022-09-28T23:48:19.237Z,3.33
2022-09-28T23:50:45.753Z,3.28
2022-09-28T23:53:16.098Z,2.70
2022-09-28T23:55:43.200Z,2.50
2022-09-28T23:58:10.868Z,2.65
